< < Back
Terminal Aerodrome Forecast


Current Version              Previous Versions:   1  2  3  4  5  6  7  8  9  

Terminal Aerodrome Forecast

841
FTUS42 KGSP 282056 AAA
TAFCLT
TAF AMD
KCLT 282056Z 2821/2918 13008KT P6SM VCSH BKN045
      TEMPO 2821/2823 VRB08G18KT 4SM TSRA BKN040CB
     FM290200 17004KT P6SM BKN045
     FM291000 00000KT 5SM BR BKN250
     FM291200 00000KT P6SM BKN080=



Latest METAR

344
SAUS70 KWBC 290200 RRA
MTRCLT
METAR KCLT 290152Z 30007KT 10SM FEW048 SCT250 23/18 A3022 RMK AO2 SLP224
T02330183 $


USA.gov is the U.S. government's official web portal to all federal, state and local government web resources and services.